Thayer, Nebraska
Current Conditions -  °F | °C
As of 11:35 PM on Saturday 25 Oct 2014 (Local Time) from KJYR Reporting Station
Clear Clear  
Wind Chill: 55°   Ceiling: Unl
Heat Index: 55°   Visibility: 10mi
Dew Point: 45°   Wind: 8mph
Humidity: 67%   Direction: 90°E
Pressure: 30"   Gusts: NA
Location:  40.928°N, 97.4416°W
Report Text: KJYR 260435Z AUTO 09007KT 10SM CLR 13/07 A3000 RMK AO2
Loading
Personal Weather Stations






























Interactive Weather Map
Tropical Storm Tracking
New forecast layout! Learn more

10-Day Weather Forecast

Advertisements
Track Severe Weather on mobile